createdAt,value
2023-03-12T00:00:02.708Z,2231.471
2023-03-12T00:05:02.722Z,2254.9500000000003
2023-03-12T00:10:02.770Z,2312.783
2023-03-12T00:15:02.836Z,2401.915
2023-03-12T00:20:01.136Z,2164.945
2023-03-12T00:25:01.144Z,220.46800000000002
2023-03-12T00:30:01.179Z,163.866
2023-03-12T00:35:01.140Z,163.232
2023-03-12T00:40:01.152Z,162.675
2023-03-12T00:45:01.144Z,188.466
2023-03-12T00:50:01.164Z,176.024
2023-03-12T00:55:01.152Z,319.08
2023-03-12T01:00:01.149Z,2328.684
2023-03-12T01:05:01.409Z,2332.471
2023-03-12T01:10:01.153Z,2338.538
2023-03-12T01:15:01.148Z,2263.331
2023-03-12T01:20:01.181Z,2021.336
2023-03-12T01:25:01.188Z,2446.972
2023-03-12T01:30:01.307Z,2295.371
2023-03-12T01:35:01.142Z,2530.785
2023-03-12T01:40:01.155Z,1870.394
2023-03-12T01:45:01.164Z,298.15500000000003
2023-03-12T01:50:01.270Z,319.618
2023-03-12T01:55:01.273Z,300.207
2023-03-12T02:00:01.324Z,230.96800000000002
2023-03-12T02:05:01.390Z,1751.169
2023-03-12T02:10:01.334Z,6185.475
2023-03-12T02:15:01.344Z,6803.448
2023-03-12T02:20:01.351Z,6803.662
2023-03-12T02:25:01.376Z,6812.894
2023-03-12T02:30:01.445Z,6858.506
2023-03-12T02:35:01.202Z,7021.284000000001
2023-03-12T02:40:01.209Z,5797.53
2023-03-12T02:45:01.247Z,4906.472
2023-03-12T02:50:01.218Z,4798.602
2023-03-12T02:55:01.249Z,4781.743
2023-03-12T03:00:01.259Z,4790.281
2023-03-12T03:05:01.220Z,4369.8910000000005
2023-03-12T03:10:01.233Z,1317.25
2023-03-12T03:15:01.195Z,2059.492
2023-03-12T03:20:01.329Z,2316.7980000000002
2023-03-12T03:25:01.268Z,2357.196
2023-03-12T03:30:01.379Z,2375.375
2023-03-12T03:35:01.286Z,2357.477
2023-03-12T03:40:01.314Z,2277.7200000000003
2023-03-12T03:45:01.296Z,2295.608
2023-03-12T03:50:01.311Z,2481.397
2023-03-12T03:55:01.296Z,2255.404
2023-03-12T04:00:03.600Z,189.984
2023-03-12T04:05:01.281Z,2825.524
2023-03-12T04:10:01.376Z,6318.782
2023-03-12T04:15:01.403Z,5658.157
2023-03-12T04:20:01.345Z,5048.079
2023-03-12T04:25:01.314Z,5513.478
2023-03-12T04:30:01.369Z,5945.326
2023-03-12T04:35:01.349Z,5287.618
2023-03-12T04:40:01.411Z,5322.313
2023-03-12T04:45:01.425Z,4890.7
2023-03-12T04:50:01.470Z,2698.939
2023-03-12T04:55:01.529Z,2307.19
2023-03-12T05:00:01.627Z,2414.945
2023-03-12T05:05:01.469Z,674.785
2023-03-12T05:10:01.504Z,261.971
2023-03-12T05:15:01.455Z,230.764
2023-03-12T05:20:01.598Z,194.751
2023-03-12T05:25:01.509Z,186.168
2023-03-12T05:30:01.532Z,191.512
2023-03-12T05:35:01.368Z,1739.409
2023-03-12T05:40:01.580Z,2222.014
2023-03-12T05:45:01.402Z,2328.847
2023-03-12T05:50:01.416Z,2344.867
2023-03-12T05:55:01.381Z,2221.619
2023-03-12T06:00:01.553Z,2367.692
2023-03-12T06:05:01.433Z,2348.621
2023-03-12T06:10:01.484Z,2357.997
2023-03-12T06:15:01.471Z,2729.274
2023-03-12T06:20:01.454Z,575.183
2023-03-12T06:25:01.446Z,183.161
2023-03-12T06:30:01.517Z,216.928
2023-03-12T06:35:01.472Z,280.81
2023-03-12T06:40:01.454Z,676.153
2023-03-12T06:45:01.481Z,2255.924
2023-03-12T06:50:01.393Z,2206.974
2023-03-12T06:55:01.476Z,2233.955
2023-03-12T07:00:01.537Z,2267.137
2023-03-12T07:05:01.540Z,2140.14
2023-03-12T07:10:01.466Z,166.269
2023-03-12T07:15:01.447Z,208.04500000000002
2023-03-12T07:20:01.465Z,304.80400000000003
2023-03-12T07:25:01.461Z,304.765
2023-03-12T07:30:01.486Z,299.40500000000003
2023-03-12T07:35:01.512Z,195.958
2023-03-12T07:40:01.548Z,196.755
2023-03-12T07:45:01.610Z,1448.207
2023-03-12T07:50:01.683Z,5297.981
2023-03-12T07:55:01.746Z,5188.61
2023-03-12T08:00:01.717Z,4368.678
2023-03-12T08:05:01.741Z,3335.772
2023-03-12T08:10:01.778Z,4345.877
2023-03-12T08:15:01.673Z,4086.317
2023-03-12T08:20:01.664Z,1397.848
2023-03-12T08:25:01.729Z,340.154
2023-03-12T08:30:01.600Z,328.411
2023-03-12T08:35:01.530Z,198.39600000000002
2023-03-12T08:40:01.526Z,754.939
2023-03-12T08:45:01.512Z,345.59000000000003
2023-03-12T08:50:01.542Z,846.126
2023-03-12T08:55:01.684Z,2497.248
2023-03-12T09:00:01.585Z,2591.03
2023-03-12T09:05:01.571Z,2619.753
2023-03-12T09:10:01.567Z,2537.253
2023-03-12T09:15:03.688Z,2328.142
2023-03-12T09:20:01.583Z,2922.2000000000003
2023-03-12T09:25:01.614Z,2148.547
2023-03-12T09:30:01.630Z,438.286
2023-03-12T09:35:01.574Z,420.368
2023-03-12T09:40:01.589Z,438.063
2023-03-12T09:45:01.595Z,543.236
2023-03-12T09:50:01.636Z,709.003
2023-03-12T09:55:01.629Z,666.235
2023-03-12T10:00:01.637Z,566.976
2023-03-12T10:05:01.707Z,571.771
2023-03-12T10:10:01.665Z,570.6750000000001
2023-03-12T10:15:01.727Z,1892.9270000000001
2023-03-12T10:20:01.812Z,2475.983
2023-03-12T10:25:01.820Z,2451.369
2023-03-12T10:30:01.778Z,2584.602
2023-03-12T10:35:01.856Z,2647.146
2023-03-12T10:40:01.614Z,2951.027
2023-03-12T10:45:01.592Z,2148.4790000000003
2023-03-12T10:50:01.654Z,554.446
2023-03-12T10:55:01.714Z,1870.7540000000001
2023-03-12T11:00:01.720Z,1697.904
2023-03-12T11:05:01.663Z,783.8770000000001
2023-03-12T11:10:01.730Z,1005.059
2023-03-12T11:15:01.645Z,1193.878
2023-03-12T11:20:01.646Z,879.784
2023-03-12T11:25:01.735Z,998
2023-03-12T11:30:01.762Z,2722.384
2023-03-12T11:35:01.749Z,778.436
2023-03-12T11:40:01.650Z,2391.627
2023-03-12T11:45:01.706Z,2411.014
2023-03-12T11:50:01.733Z,2353.478
2023-03-12T11:55:01.762Z,2502.9900000000002
2023-03-12T12:00:01.886Z,1835.058
2023-03-12T12:05:01.826Z,2683.4700000000003
2023-03-12T12:10:01.893Z,1213.92
2023-03-12T12:15:01.850Z,539.538
2023-03-12T12:20:01.916Z,516.064
2023-03-12T12:25:01.755Z,528.431
2023-03-12T12:30:01.817Z,599.655
2023-03-12T12:35:01.794Z,767.191
2023-03-12T12:40:01.725Z,1634.527
2023-03-12T12:45:01.766Z,643.488
2023-03-12T12:50:01.715Z,680.7860000000001
2023-03-12T12:55:01.756Z,2758.513
2023-03-12T13:00:01.768Z,2566.54
2023-03-12T13:05:01.761Z,2550.612
2023-03-12T13:35:02.052Z,342.887
2023-03-12T13:40:06.846Z,402.932
2023-03-12T13:45:01.776Z,403.06
2023-03-12T13:50:01.794Z,430.622
2023-03-12T13:55:01.868Z,348.735
2023-03-12T14:00:01.815Z,1805.005
2023-03-12T14:05:01.937Z,4204.562
2023-03-12T14:10:01.847Z,4808.567
2023-03-12T14:15:01.889Z,3565.014
2023-03-12T14:20:01.789Z,1154.275
2023-03-12T14:25:01.839Z,195.436
2023-03-12T14:30:01.912Z,1650.061
2023-03-12T14:35:01.863Z,2309.214
2023-03-12T14:40:01.855Z,2321.992
2023-03-12T14:45:01.864Z,2299.9120000000003
2023-03-12T14:50:01.859Z,2623.4320000000002
2023-03-12T14:55:01.917Z,2746.43
2023-03-12T15:00:01.853Z,526.064
2023-03-12T15:05:01.908Z,192.381
2023-03-12T15:10:01.892Z,191.163
2023-03-12T15:15:01.829Z,190.70600000000002
2023-03-12T15:20:01.866Z,288.531
2023-03-12T15:25:01.874Z,303.283
2023-03-12T15:30:01.931Z,273.068
2023-03-12T15:35:01.911Z,190
2023-03-12T15:40:01.916Z,163.328
2023-03-12T15:45:01.889Z,163.338
2023-03-12T15:50:01.947Z,1347.022
2023-03-12T15:55:01.908Z,2129.112
2023-03-12T16:00:01.975Z,2145.516
2023-03-12T16:05:01.934Z,2193.348
2023-03-12T16:10:01.912Z,2329.118
2023-03-12T16:15:01.949Z,2241.125
2023-03-12T16:20:01.921Z,2838.366
2023-03-12T16:25:01.931Z,983.816
2023-03-12T16:30:02.042Z,185.025
2023-03-12T16:35:01.982Z,183.793
2023-03-12T16:40:01.932Z,186.296
2023-03-12T16:45:01.916Z,192.445
2023-03-12T16:50:01.968Z,193.776
2023-03-12T16:55:01.955Z,264.117
2023-03-12T17:00:02.018Z,279.318
2023-03-12T17:05:02.032Z,270.585
2023-03-12T17:10:01.990Z,1449.276
2023-03-12T17:15:02.012Z,2153.779
2023-03-12T17:20:01.918Z,2179.136
2023-03-12T17:25:01.972Z,2208.812
2023-03-12T17:30:02.025Z,2233.51
2023-03-12T17:35:02.014Z,2533.89
2023-03-12T17:40:01.994Z,2874.111
2023-03-12T17:45:01.991Z,1374.175
2023-03-12T17:50:02.028Z,1362.529
2023-03-12T17:55:01.983Z,1721.195
2023-03-12T18:00:02.062Z,1258.46
2023-03-12T18:05:02.067Z,1567.184
2023-03-12T18:10:02.056Z,539.683
2023-03-12T18:15:02.058Z,541.748
2023-03-12T18:20:02.027Z,532.958
2023-03-12T18:25:02.034Z,1900.159
2023-03-12T18:30:02.027Z,4105.149
2023-03-12T18:35:02.103Z,3485.1240000000003
2023-03-12T18:40:02.032Z,3337.512
2023-03-12T18:45:02.065Z,5270.35
2023-03-12T18:50:02.099Z,3600.3250000000003
2023-03-12T18:55:02.095Z,2671.911
2023-03-12T19:00:02.144Z,2542.0950000000003
2023-03-12T19:05:02.122Z,2548.6730000000002
2023-03-12T19:10:02.127Z,2572.71
2023-03-12T19:15:02.066Z,2594.06
2023-03-12T19:20:02.133Z,2843.279
2023-03-12T19:25:02.094Z,2626.56
2023-03-12T19:30:02.138Z,3194.782
2023-03-12T19:35:02.146Z,2349.726
2023-03-12T19:40:02.114Z,602.35
2023-03-12T19:45:02.145Z,519.626
2023-03-12T19:50:02.144Z,386.728
2023-03-12T19:55:04.988Z,380.822
2023-03-12T20:00:02.114Z,376.908
2023-03-12T20:05:02.189Z,405.295
2023-03-12T20:10:02.111Z,563.104
2023-03-12T20:15:02.183Z,1954.17
2023-03-12T20:20:02.136Z,2530.459
2023-03-12T20:25:02.986Z,2500.651
2023-03-12T20:30:02.204Z,2430.549
2023-03-12T20:35:02.159Z,2494.895
2023-03-12T20:40:02.151Z,2563.596
2023-03-12T20:45:02.132Z,3033.668
2023-03-12T20:50:02.318Z,1499.105
2023-03-12T20:55:02.182Z,478.16700000000003
2023-03-12T21:00:02.192Z,628.738
2023-03-12T21:05:02.166Z,493.372
2023-03-12T21:10:02.184Z,440.818
2023-03-12T21:15:02.179Z,358.908
2023-03-12T21:20:02.296Z,342.842
2023-03-12T21:25:02.202Z,363.3
2023-03-12T21:30:02.207Z,2237.049
2023-03-12T21:35:02.243Z,2285.011
2023-03-12T21:40:02.192Z,2164.92
2023-03-12T21:45:02.227Z,2597.606
2023-03-12T21:50:02.192Z,2514.08
2023-03-12T21:55:02.248Z,2533.794
2023-03-12T22:00:02.213Z,2469.761
2023-03-12T22:05:02.235Z,2740.659
2023-03-12T22:10:02.203Z,1863.8690000000001
2023-03-12T22:15:02.190Z,348.13100000000003
2023-03-12T22:20:02.252Z,328.532
2023-03-12T22:25:02.238Z,327.832
2023-03-12T22:30:02.243Z,346.069
2023-03-12T22:35:02.274Z,635.755
2023-03-12T22:40:02.254Z,762.254
2023-03-12T22:45:02.267Z,2641.134
2023-03-12T22:50:02.228Z,2460.7490000000003
2023-03-12T22:55:02.493Z,2869.39
2023-03-12T23:00:02.296Z,2643.675
2023-03-12T23:05:02.377Z,2656.213
2023-03-12T23:10:02.297Z,2658.449
2023-03-12T23:15:02.312Z,2272.971
2023-03-12T23:20:02.287Z,2897.1130000000003
2023-03-12T23:25:02.317Z,2988.271
2023-03-12T23:30:02.310Z,3168.481
2023-03-12T23:35:02.310Z,641.429
2023-03-12T23:40:02.321Z,611.6320000000001
2023-03-12T23:45:02.294Z,575.501
2023-03-12T23:50:02.357Z,612.008
2023-03-12T23:55:02.335Z,574.642
